Time,TemperatureF,DewpointF,PressureIn,WindDirection,WindDirectionDegrees,WindSpeedMPH,WindSpeedGustMPH,Humidity,HourlyPrecipIn,Conditions,Clouds,dailyrainin,SoftwareType,DateUTC
2013-01-23 00:03:00,57.4,21.0,30.05,WSW,247,0.0,0.0,23,0.00,,,0.00,Rainwise IP-100,2013-01-23 08:03:00,
2013-01-23 00:08:00,57.4,23.0,30.04,WSW,247,0.0,0.0,24,0.00,,,0.00,Rainwise IP-100,2013-01-23 08:08:00,
2013-01-23 00:13:00,57.1,23.0,30.04,WSW,247,0.0,0.0,25,0.00,,,0.00,Rainwise IP-100,2013-01-23 08:13:00,
2013-01-23 00:18:00,56.8,23.0,30.04,WSW,247,0.0,0.0,25,0.00,,,0.00,Rainwise IP-100,2013-01-23 08:18:00,
2013-01-23 00:23:00,56.2,24.0,30.04,WSW,247,0.0,0.0,28,0.00,,,0.00,Rainwise IP-100,2013-01-23 08:23:00,
2013-01-23 00:28:00,55.3,24.0,30.04,WSW,247,0.0,0.0,30,0.00,,,0.00,Rainwise IP-100,2013-01-23 08:28:00,
2013-01-23 00:33:00,54.7,24.0,30.04,WSW,247,0.0,0.0,31,0.00,,,0.00,Rainwise IP-100,2013-01-23 08:33:00,
2013-01-23 00:38:00,54.8,26.0,30.04,WSW,247,0.0,0.0,31,0.00,,,0.00,Rainwise IP-100,2013-01-23 08:38:00,
2013-01-23 00:43:00,54.9,26.0,30.04,WSW,247,0.0,0.0,31,0.00,,,0.00,Rainwise IP-100,2013-01-23 08:43:00,
2013-01-23 00:48:00,54.5,26.0,30.04,WSW,247,0.0,0.0,33,0.00,,,0.00,Rainwise IP-100,2013-01-23 08:48:00,
2013-01-23 00:53:00,54.7,26.0,30.04,WSW,247,0.0,0.0,32,0.00,,,0.00,Rainwise IP-100,2013-01-23 08:53:00,
2013-01-23 00:58:00,54.5,26.0,30.04,WSW,247,0.0,0.0,32,0.00,,,0.00,Rainwise IP-100,2013-01-23 08:58:00,
2013-01-23 01:04:00,53.8,28.0,30.04,WSW,247,0.0,0.0,35,0.00,,,0.00,Rainwise IP-100,2013-01-23 09:04:00,
2013-01-23 01:09:00,53.8,26.0,30.03,WSW,247,0.0,0.0,34,0.00,,,0.00,Rainwise IP-100,2013-01-23 09:09:00,
2013-01-23 01:14:00,54.0,26.0,30.03,WSW,247,0.0,0.0,33,0.00,,,0.00,Rainwise IP-100,2013-01-23 09:14:00,
2013-01-23 01:19:00,53.8,28.0,30.04,WSW,247,0.0,0.0,35,0.00,,,0.00,Rainwise IP-100,2013-01-23 09:19:00,
2013-01-23 01:24:00,53.3,28.0,30.04,WSW,247,0.0,0.0,36,0.00,,,0.00,Rainwise IP-100,2013-01-23 09:24:00,
2013-01-23 01:29:00,53.1,26.0,30.03,WSW,247,0.0,0.0,36,0.00,,,0.00,Rainwise IP-100,2013-01-23 09:29:00,
2013-01-23 01:34:00,53.4,26.0,30.03,WSW,247,0.0,0.0,35,0.00,,,0.00,Rainwise IP-100,2013-01-23 09:34:00,
2013-01-23 01:39:00,53.4,28.0,30.03,WSW,247,0.0,0.0,36,0.00,,,0.00,Rainwise IP-100,2013-01-23 09:39:00,
2013-01-23 01:44:00,53.2,26.0,30.03,WSW,247,0.0,0.0,36,0.00,,,0.00,Rainwise IP-100,2013-01-23 09:44:00,
2013-01-23 01:49:00,53.0,28.0,30.03,WSW,247,0.0,0.0,37,0.00,,,0.00,Rainwise IP-100,2013-01-23 09:49:00,
2013-01-23 01:55:00,52.8,28.0,30.03,WSW,247,0.0,0.0,37,0.00,,,0.00,Rainwise IP-100,2013-01-23 09:55:00,
2013-01-23 02:00:00,52.7,28.0,30.03,WSW,247,0.0,0.0,37,0.00,,,0.00,Rainwise IP-100,2013-01-23 10:00:00,
2013-01-23 02:05:00,53.1,26.0,30.03,WSW,247,0.0,0.0,36,0.00,,,0.00,Rainwise IP-100,2013-01-23 10:05:00,
2013-01-23 02:10:00,53.4,28.0,30.03,WSW,247,0.0,0.0,36,0.00,,,0.00,Rainwise IP-100,2013-01-23 10:10:00,
2013-01-23 02:15:00,53.5,28.0,30.03,WSW,247,0.0,0.0,36,0.00,,,0.00,Rainwise IP-100,2013-01-23 10:15:00,
2013-01-23 02:20:00,53.7,26.0,30.03,WSW,247,0.0,0.0,35,0.00,,,0.00,Rainwise IP-100,2013-01-23 10:20:00,
2013-01-23 02:25:00,53.8,28.0,30.03,WSW,247,0.0,0.0,36,0.00,,,0.00,Rainwise IP-100,2013-01-23 10:25:00,
2013-01-23 02:30:00,53.5,29.0,30.03,WSW,247,0.0,0.0,38,0.00,,,0.00,Rainwise IP-100,2013-01-23 10:30:00,
2013-01-23 02:35:00,53.7,28.0,30.03,WSW,247,0.0,0.0,37,0.00,,,0.00,Rainwise IP-100,2013-01-23 10:35:00,
2013-01-23 02:40:00,54.2,28.0,30.03,WSW,247,0.0,0.0,35,0.00,,,0.00,Rainwise IP-100,2013-01-23 10:40:00,
2013-01-23 02:45:00,54.2,28.0,30.03,WSW,247,0.0,0.0,36,0.00,,,0.00,Rainwise IP-100,2013-01-23 10:45:00,
2013-01-23 02:50:00,54.5,28.0,30.03,WSW,247,0.0,0.0,36,0.00,,,0.00,Rainwise IP-100,2013-01-23 10:50:00,
2013-01-23 02:55:00,55.2,28.0,30.03,WSW,247,0.0,0.0,33,0.00,,,0.00,Rainwise IP-100,2013-01-23 10:55:00,
2013-01-23 03:00:00,55.4,26.0,30.03,WSW,247,0.0,0.0,32,0.00,,,0.00,Rainwise IP-100,2013-01-23 11:00:00,
2013-01-23 03:05:00,55.0,28.0,30.03,WSW,247,0.0,0.0,34,0.00,,,0.00,Rainwise IP-100,2013-01-23 11:05:00,
2013-01-23 03:10:00,55.0,28.0,30.03,WSW,247,0.0,0.0,33,0.00,,,0.00,Rainwise IP-100,2013-01-23 11:10:00,
2013-01-23 03:15:00,55.4,26.0,30.03,WSW,247,0.0,0.0,31,0.00,,,0.00,Rainwise IP-100,2013-01-23 11:15:00,
2013-01-23 03:20:00,55.9,24.0,30.03,WSW,247,0.0,0.0,29,0.00,,,0.00,Rainwise IP-100,2013-01-23 11:20:00,
2013-01-23 03:25:00,56.7,24.0,30.03,WSW,247,0.0,0.0,28,0.00,,,0.00,Rainwise IP-100,2013-01-23 11:25:00,
2013-01-23 03:30:00,56.9,24.0,30.03,WSW,247,0.0,0.0,28,0.00,,,0.00,Rainwise IP-100,2013-01-23 11:30:00,
2013-01-23 03:35:00,56.7,24.0,30.03,WSW,247,0.0,0.0,29,0.00,,,0.00,Rainwise IP-100,2013-01-23 11:35:00,
2013-01-23 03:40:00,57.2,24.0,30.03,West,270,1.4,2.1,27,0.00,,,0.00,Rainwise IP-100,2013-01-23 11:40:00,
2013-01-23 03:45:00,58.4,23.0,30.03,West,270,0.0,1.9,25,0.00,,,0.00,Rainwise IP-100,2013-01-23 11:45:00,
2013-01-23 03:50:00,59.0,23.0,30.02,West,270,0.0,0.0,23,0.00,,,0.00,Rainwise IP-100,2013-01-23 11:50:00,
2013-01-23 03:55:00,58.6,23.0,30.01,West,270,0.0,1.9,24,0.00,,,0.00,Rainwise IP-100,2013-01-23 11:55:00,
2013-01-23 04:00:00,58.2,23.0,30.02,West,270,0.0,1.6,25,0.00,,,0.00,Rainwise IP-100,2013-01-23 12:00:00,
2013-01-23 04:05:00,58.1,23.0,30.02,West,270,0.0,0.0,25,0.00,,,0.00,Rainwise IP-100,2013-01-23 12:05:00,
2013-01-23 04:10:00,58.0,23.0,30.02,West,270,0.0,1.2,25,0.00,,,0.00,Rainwise IP-100,2013-01-23 12:10:00,
2013-01-23 04:15:00,58.4,23.0,30.02,West,270,0.0,0.0,25,0.00,,,0.00,Rainwise IP-100,2013-01-23 12:15:00,
2013-01-23 04:20:00,58.8,23.0,30.02,WNW,292,0.0,1.2,24,0.00,,,0.00,Rainwise IP-100,2013-01-23 12:20:00,
2013-01-23 04:25:00,58.9,23.0,30.01,WNW,292,0.0,0.0,24,0.00,,,0.00,Rainwise IP-100,2013-01-23 12:25:00,
2013-01-23 04:30:00,58.6,24.0,30.01,WNW,292,0.0,1.6,26,0.00,,,0.00,Rainwise IP-100,2013-01-23 12:30:00,
2013-01-23 04:35:00,58.6,24.0,30.01,WNW,292,0.0,1.2,26,0.00,,,0.00,Rainwise IP-100,2013-01-23 12:35:00,
2013-01-23 04:40:00,59.0,23.0,30.01,WNW,292,0.0,1.2,24,0.00,,,0.00,Rainwise IP-100,2013-01-23 12:40:00,
2013-01-23 04:45:00,59.8,23.0,30.01,WNW,292,0.0,1.2,23,0.00,,,0.00,Rainwise IP-100,2013-01-23 12:45:00,
2013-01-23 04:50:00,60.5,23.0,30.01,WNW,292,0.0,1.9,22,0.00,,,0.00,Rainwise IP-100,2013-01-23 12:50:00,
2013-01-23 04:55:00,60.9,21.0,30.01,WNW,292,0.0,1.2,21,0.00,,,0.00,Rainwise IP-100,2013-01-23 12:55:00,
2013-01-23 05:00:00,61.1,21.0,30.01,WNW,292,0.0,0.0,21,0.00,,,0.00,Rainwise IP-100,2013-01-23 13:00:00,
2013-01-23 05:05:00,60.9,21.0,30.01,WNW,292,0.0,0.0,20,0.00,,,0.00,Rainwise IP-100,2013-01-23 13:05:00,
2013-01-23 05:10:00,60.7,21.0,30.01,WNW,292,0.0,1.2,21,0.00,,,0.00,Rainwise IP-100,2013-01-23 13:10:00,
2013-01-23 05:15:00,60.1,23.0,30.01,WNW,292,0.0,0.0,24,0.00,,,0.00,Rainwise IP-100,2013-01-23 13:15:00,
2013-01-23 05:20:00,59.3,26.0,30.01,WNW,292,1.4,1.4,27,0.00,,,0.00,Rainwise IP-100,2013-01-23 13:20:00,
2013-01-23 05:25:00,59.0,24.0,30.01,WNW,292,0.0,1.6,26,0.00,,,0.00,Rainwise IP-100,2013-01-23 13:25:00,
2013-01-23 05:30:00,59.5,21.0,30.02,WNW,292,0.0,0.0,22,0.00,,,0.00,Rainwise IP-100,2013-01-23 13:30:00,
2013-01-23 05:35:00,59.9,21.0,30.01,WNW,292,0.0,0.0,21,0.00,,,0.00,Rainwise IP-100,2013-01-23 13:35:00,
2013-01-23 05:40:00,60.3,21.0,30.02,WNW,292,0.0,0.0,21,0.00,,,0.00,Rainwise IP-100,2013-01-23 13:40:00,
2013-01-23 05:45:00,60.4,23.0,30.02,WNW,292,0.0,1.4,22,0.00,,,0.00,Rainwise IP-100,2013-01-23 13:45:00,
2013-01-23 05:50:00,60.2,23.0,30.02,SSW,202,0.0,1.4,24,0.00,,,0.00,Rainwise IP-100,2013-01-23 13:50:00,
2013-01-23 05:55:00,59.3,26.0,30.02,SSW,202,0.0,1.4,28,0.00,,,0.00,Rainwise IP-100,2013-01-23 13:55:00,
2013-01-23 06:00:00,58.2,28.0,30.03,SSW,202,0.0,1.4,31,0.00,,,0.00,Rainwise IP-100,2013-01-23 14:00:00,
2013-01-23 06:05:00,57.6,28.0,30.03,SSW,202,0.0,2.1,32,0.00,,,0.00,Rainwise IP-100,2013-01-23 14:05:00,
2013-01-23 06:10:00,57.4,28.0,30.03,SSW,202,0.0,1.6,32,0.00,,,0.00,Rainwise IP-100,2013-01-23 14:10:00,
2013-01-23 06:15:00,57.2,29.0,30.03,SSW,202,0.0,0.0,34,0.00,,,0.00,Rainwise IP-100,2013-01-23 14:15:00,
2013-01-23 06:20:00,56.9,29.0,30.03,SSW,202,0.0,0.0,34,0.00,,,0.00,Rainwise IP-100,2013-01-23 14:20:00,
2013-01-23 06:25:00,56.8,28.0,30.03,SSW,202,0.0,0.0,32,0.00,,,0.00,Rainwise IP-100,2013-01-23 14:25:00,
2013-01-23 06:30:00,57.3,28.0,30.03,SSW,202,0.0,0.0,31,0.00,,,0.00,Rainwise IP-100,2013-01-23 14:30:00,
2013-01-23 06:35:00,57.7,26.0,30.03,SSW,202,0.0,0.0,30,0.00,,,0.00,Rainwise IP-100,2013-01-23 14:35:00,
2013-01-23 06:40:00,57.7,26.0,30.03,SSW,202,0.0,0.0,30,0.00,,,0.00,Rainwise IP-100,2013-01-23 14:40:00,
2013-01-23 06:45:00,58.2,26.0,30.03,SSW,202,0.0,0.0,28,0.00,,,0.00,Rainwise IP-100,2013-01-23 14:45:00,
2013-01-23 06:50:00,59.0,24.0,30.03,SSW,202,0.0,0.0,26,0.00,,,0.00,Rainwise IP-100,2013-01-23 14:50:00,
2013-01-23 06:55:00,59.2,24.0,30.03,SSW,202,0.0,0.0,26,0.00,,,0.00,Rainwise IP-100,2013-01-23 14:55:00,
2013-01-23 07:00:00,59.1,24.0,30.03,SSW,202,0.0,0.0,26,0.00,,,0.00,Rainwise IP-100,2013-01-23 15:00:00,
2013-01-23 07:05:00,60.2,23.0,30.03,SSW,202,0.0,0.0,24,0.00,,,0.00,Rainwise IP-100,2013-01-23 15:05:00,
2013-01-23 07:10:00,61.4,23.0,30.04,SSW,202,0.0,0.0,22,0.00,,,0.00,Rainwise IP-100,2013-01-23 15:10:00,
2013-01-23 07:15:00,61.8,23.0,30.04,SSW,202,0.0,0.0,22,0.00,,,0.00,Rainwise IP-100,2013-01-23 15:15:00,
2013-01-23 07:20:00,61.9,24.0,30.04,SSW,202,0.0,0.0,23,0.00,,,0.00,Rainwise IP-100,2013-01-23 15:20:00,
2013-01-23 07:25:00,61.7,24.0,30.04,SSW,202,0.0,0.0,23,0.00,,,0.00,Rainwise IP-100,2013-01-23 15:25:00,
2013-01-23 07:30:00,61.6,24.0,30.04,SSW,202,0.0,0.0,23,0.00,,,0.00,Rainwise IP-100,2013-01-23 15:30:00,
2013-01-23 07:35:00,61.1,26.0,30.04,SSW,202,0.0,0.0,26,0.00,,,0.00,Rainwise IP-100,2013-01-23 15:35:00,
2013-01-23 07:40:00,60.5,26.0,30.04,SSW,202,0.0,0.0,27,0.00,,,0.00,Rainwise IP-100,2013-01-23 15:40:00,
2013-01-23 07:45:00,60.6,26.0,30.03,SSW,202,0.0,0.0,26,0.00,,,0.00,Rainwise IP-100,2013-01-23 15:45:00,
2013-01-23 07:50:00,60.8,26.0,30.04,SSW,202,0.0,0.0,26,0.00,,,0.00,Rainwise IP-100,2013-01-23 15:50:00,
2013-01-23 07:55:00,60.9,28.0,30.03,SSW,202,0.0,0.0,27,0.00,,,0.00,Rainwise IP-100,2013-01-23 15:55:00,
2013-01-23 08:00:00,60.9,29.0,30.03,SSW,202,0.0,0.0,29,0.00,,,0.00,Rainwise IP-100,2013-01-23 16:00:00,
2013-01-23 08:05:00,60.9,29.0,30.03,SSW,202,0.0,0.0,30,0.00,,,0.00,Rainwise IP-100,2013-01-23 16:05:00,
2013-01-23 08:10:00,61.6,29.0,30.04,SSW,202,0.0,0.0,29,0.00,,,0.00,Rainwise IP-100,2013-01-23 16:10:00,
2013-01-23 08:15:00,62.1,31.0,30.04,SSW,202,0.0,0.0,30,0.00,,,0.00,Rainwise IP-100,2013-01-23 16:15:00,
2013-01-23 08:20:00,62.8,31.0,30.04,SSW,202,0.0,0.0,29,0.00,,,0.00,Rainwise IP-100,2013-01-23 16:20:00,
2013-01-23 08:25:00,63.1,33.0,30.04,SSW,202,0.0,0.0,32,0.00,,,0.00,Rainwise IP-100,2013-01-23 16:25:00,
2013-01-23 08:30:00,62.8,36.0,30.04,SSW,202,0.0,0.0,37,0.00,,,0.00,Rainwise IP-100,2013-01-23 16:30:00,
2013-01-23 08:35:00,62.3,37.0,30.04,SSW,202,0.0,0.0,39,0.00,,,0.00,Rainwise IP-100,2013-01-23 16:35:00,
2013-01-23 08:40:00,61.9,37.0,30.04,SSW,202,0.0,0.0,40,0.00,,,0.00,Rainwise IP-100,2013-01-23 16:40:00,
2013-01-23 08:45:00,61.7,39.0,30.05,SSW,202,0.0,1.2,43,0.00,,,0.00,Rainwise IP-100,2013-01-23 16:45:00,
2013-01-23 08:50:00,61.8,40.0,30.04,SSW,202,0.0,0.0,45,0.00,,,0.00,Rainwise IP-100,2013-01-23 16:50:00,
2013-01-23 08:55:00,62.4,41.0,30.05,SSW,202,0.0,0.0,45,0.00,,,0.00,Rainwise IP-100,2013-01-23 16:55:00,
2013-01-23 09:00:00,63.6,42.0,30.04,SSW,202,0.0,0.0,45,0.00,,,0.00,Rainwise IP-100,2013-01-23 17:00:00,
2013-01-23 09:05:00,64.8,41.0,30.05,SSW,202,0.0,0.0,42,0.00,,,0.00,Rainwise IP-100,2013-01-23 17:05:00,
2013-01-23 09:10:00,65.6,40.0,30.05,SSW,202,0.0,0.0,40,0.00,,,0.00,Rainwise IP-100,2013-01-23 17:10:00,
2013-01-23 09:15:00,66.4,41.0,30.05,SSW,202,0.0,0.0,40,0.00,,,0.00,Rainwise IP-100,2013-01-23 17:15:00,
2013-01-23 09:20:00,67.1,42.0,30.06,SSW,202,0.0,0.0,40,0.00,,,0.00,Rainwise IP-100,2013-01-23 17:20:00,
2013-01-23 09:25:00,67.5,43.0,30.05,SSW,202,0.0,0.0,41,0.00,,,0.00,Rainwise IP-100,2013-01-23 17:25:00,
2013-01-23 09:30:00,67.7,44.0,30.06,SSW,202,0.0,0.0,42,0.00,,,0.00,Rainwise IP-100,2013-01-23 17:30:00,
2013-01-23 09:35:00,67.5,44.0,30.05,SSW,202,0.0,0.0,43,0.00,,,0.00,Rainwise IP-100,2013-01-23 17:35:00,
2013-01-23 09:40:00,67.8,42.0,30.05,NW,315,0.0,1.6,39,0.00,,,0.00,Rainwise IP-100,2013-01-23 17:40:00,
2013-01-23 09:45:00,68.6,38.0,30.06,NW,315,0.0,1.6,33,0.00,,,0.00,Rainwise IP-100,2013-01-23 17:45:00,
2013-01-23 09:50:00,69.5,37.0,30.06,NW,315,0.0,1.6,30,0.00,,,0.00,Rainwise IP-100,2013-01-23 17:50:00,
2013-01-23 09:55:00,70.0,36.0,30.05,NW,315,1.9,1.9,29,0.00,,,0.00,Rainwise IP-100,2013-01-23 17:55:00,
2013-01-23 10:00:00,70.5,37.0,30.05,NW,315,0.0,2.1,29,0.00,,,0.00,Rainwise IP-100,2013-01-23 18:00:00,
2013-01-23 10:05:00,71.2,37.0,30.05,NW,315,0.0,2.1,28,0.00,,,0.00,Rainwise IP-100,2013-01-23 18:05:00,
2013-01-23 10:10:00,71.9,37.0,30.06,NW,315,0.0,1.6,28,0.00,,,0.00,Rainwise IP-100,2013-01-23 18:10:00,
2013-01-23 10:15:00,72.6,36.0,30.05,NW,315,0.0,2.1,26,0.00,,,0.00,Rainwise IP-100,2013-01-23 18:15:00,
2013-01-23 10:20:00,73.3,36.0,30.05,WSW,247,1.6,1.6,25,0.00,,,0.00,Rainwise IP-100,2013-01-23 18:20:00,
2013-01-23 10:25:00,73.8,36.0,30.05,SSE,157,0.0,3.5,25,0.00,,,0.00,Rainwise IP-100,2013-01-23 18:25:00,
2013-01-23 10:30:00,74.2,36.0,30.05,SSE,157,0.0,2.1,24,0.00,,,0.00,Rainwise IP-100,2013-01-23 18:30:00,
2013-01-23 10:35:00,74.7,36.0,30.05,SSW,202,1.6,2.1,24,0.00,,,0.00,Rainwise IP-100,2013-01-23 18:35:00,
2013-01-23 10:40:00,75.1,36.0,30.06,SSW,202,0.0,1.6,24,0.00,,,0.00,Rainwise IP-100,2013-01-23 18:40:00,
2013-01-23 10:45:00,75.5,35.0,30.06,SSW,202,0.0,1.6,23,0.00,,,0.00,Rainwise IP-100,2013-01-23 18:45:00,
2013-01-23 10:50:00,75.9,35.0,30.05,SSW,202,0.0,2.3,22,0.00,,,0.00,Rainwise IP-100,2013-01-23 18:50:00,
2013-01-23 10:55:00,76.1,35.0,30.05,SSW,202,1.6,4.0,22,0.00,,,0.00,Rainwise IP-100,2013-01-23 18:55:00,
2013-01-23 11:00:00,76.1,36.0,30.05,SW,225,1.9,3.3,23,0.00,,,0.00,Rainwise IP-100,2013-01-23 19:00:00,
2013-01-23 11:05:00,76.1,36.0,30.05,SSW,202,3.7,4.2,23,0.00,,,0.00,Rainwise IP-100,2013-01-23 19:05:00,
2013-01-23 11:10:00,76.1,36.0,30.05,SSW,202,2.6,3.7,23,0.00,,,0.00,Rainwise IP-100,2013-01-23 19:10:00,
2013-01-23 11:15:00,76.0,36.0,30.04,SSW,202,1.4,3.3,23,0.00,,,0.00,Rainwise IP-100,2013-01-23 19:15:00,
2013-01-23 11:20:00,75.9,35.0,30.05,SSW,202,1.9,4.4,22,0.00,,,0.00,Rainwise IP-100,2013-01-23 19:20:00,
2013-01-23 11:25:00,75.8,35.0,30.05,SW,225,3.0,4.9,22,0.00,,,0.00,Rainwise IP-100,2013-01-23 19:25:00,
2013-01-23 11:30:00,75.7,35.0,30.05,SSW,202,0.0,3.5,22,0.00,,,0.00,Rainwise IP-100,2013-01-23 19:30:00,
2013-01-23 11:35:00,75.4,35.0,30.05,SW,225,1.4,4.2,22,0.00,,,0.00,Rainwise IP-100,2013-01-23 19:35:00,
2013-01-23 11:40:00,75.0,33.0,30.05,SSW,202,1.6,4.0,22,0.00,,,0.00,Rainwise IP-100,2013-01-23 19:40:00,
2013-01-23 11:45:00,74.7,33.0,30.05,SW,225,2.6,4.9,22,0.00,,,0.00,Rainwise IP-100,2013-01-23 19:45:00,
2013-01-23 11:50:00,74.4,32.0,30.05,South,180,4.7,4.9,21,0.00,,,0.00,Rainwise IP-100,2013-01-23 19:50:00,
2013-01-23 11:55:00,74.3,32.0,30.05,SSW,202,1.9,6.3,21,0.00,,,0.00,Rainwise IP-100,2013-01-23 19:55:00,
2013-01-23 12:00:00,74.2,32.0,30.05,SSW,202,1.9,7.2,21,0.00,,,0.00,Rainwise IP-100,2013-01-23 20:00:00,
2013-01-23 12:05:00,74.2,32.0,30.05,SSW,202,1.9,9.8,21,0.00,,,0.00,Rainwise IP-100,2013-01-23 20:05:00,
2013-01-23 12:10:00,74.1,31.0,30.05,SSW,202,5.1,7.2,20,0.00,,,0.00,Rainwise IP-100,2013-01-23 20:10:00,
2013-01-23 12:15:00,74.0,31.0,30.05,SSW,202,1.2,5.6,20,0.00,,,0.00,Rainwise IP-100,2013-01-23 20:15:00,
2013-01-23 12:20:00,73.9,32.0,30.04,South,180,2.3,3.7,21,0.00,,,0.00,Rainwise IP-100,2013-01-23 20:20:00,
2013-01-23 12:25:00,73.5,32.0,30.04,SSW,202,2.3,4.9,22,0.00,,,0.00,Rainwise IP-100,2013-01-23 20:25:00,
2013-01-23 12:30:00,73.0,32.0,30.04,SSW,202,3.7,5.8,22,0.00,,,0.00,Rainwise IP-100,2013-01-23 20:30:00,
2013-01-23 12:35:00,72.6,32.0,30.03,South,180,2.8,4.0,22,0.00,,,0.00,Rainwise IP-100,2013-01-23 20:35:00,
2013-01-23 12:40:00,72.1,32.0,30.04,SSW,202,3.5,7.5,23,0.00,,,0.00,Rainwise IP-100,2013-01-23 20:40:00,
2013-01-23 12:45:00,71.5,32.0,30.04,SSW,202,1.9,6.3,23,0.00,,,0.00,Rainwise IP-100,2013-01-23 20:45:00,
2013-01-23 12:50:00,70.9,32.0,30.04,South,180,2.3,6.8,24,0.00,,,0.00,Rainwise IP-100,2013-01-23 20:50:00,
2013-01-23 12:55:00,70.8,33.0,30.03,South,180,4.9,8.2,25,0.00,,,0.00,Rainwise IP-100,2013-01-23 20:55:00,
2013-01-23 13:00:00,70.6,33.0,30.03,SSW,202,1.9,6.1,25,0.00,,,0.00,Rainwise IP-100,2013-01-23 21:00:00,
2013-01-23 13:05:00,70.5,35.0,30.04,South,180,3.7,5.1,26,0.00,,,0.00,Rainwise IP-100,2013-01-23 21:05:00,
2013-01-23 13:10:00,70.6,35.0,30.04,SSW,202,1.6,4.9,26,0.00,,,0.00,Rainwise IP-100,2013-01-23 21:10:00,
2013-01-23 13:15:00,70.6,35.0,30.04,SSW,202,4.2,5.6,26,0.00,,,0.00,Rainwise IP-100,2013-01-23 21:15:00,
2013-01-23 13:20:00,70.5,35.0,30.04,SSE,157,1.6,7.2,26,0.00,,,0.00,Rainwise IP-100,2013-01-23 21:20:00,
2013-01-23 13:25:00,70.3,35.0,30.03,ESE,112,0.0,2.3,27,0.00,,,0.00,Rainwise IP-100,2013-01-23 21:25:00,
2013-01-23 13:30:00,70.4,35.0,30.04,SSW,202,1.6,3.7,27,0.00,,,0.00,Rainwise IP-100,2013-01-23 21:30:00,
2013-01-23 13:35:00,70.5,35.0,30.03,South,180,1.4,4.7,26,0.00,,,0.00,Rainwise IP-100,2013-01-23 21:35:00,
2013-01-23 13:40:00,70.6,33.0,30.03,SSW,202,2.3,3.5,25,0.00,,,0.00,Rainwise IP-100,2013-01-23 21:40:00,
2013-01-23 13:45:00,70.5,33.0,30.03,South,180,1.6,5.1,25,0.00,,,0.00,Rainwise IP-100,2013-01-23 21:45:00,
2013-01-23 13:50:00,70.4,32.0,30.03,SSW,202,1.9,4.7,24,0.00,,,0.00,Rainwise IP-100,2013-01-23 21:50:00,
2013-01-23 13:55:00,70.3,31.0,30.03,SSW,202,1.2,4.9,23,0.00,,,0.00,Rainwise IP-100,2013-01-23 21:55:00,
2013-01-23 14:00:00,70.2,31.0,30.03,SSE,157,0.0,4.9,23,0.00,,,0.00,Rainwise IP-100,2013-01-23 22:00:00,
2013-01-23 14:05:00,70.1,31.0,30.03,SSE,157,1.6,4.0,23,0.00,,,0.00,Rainwise IP-100,2013-01-23 22:05:00,
2013-01-23 14:10:00,70.1,31.0,30.03,SSE,157,2.1,4.9,23,0.00,,,0.00,Rainwise IP-100,2013-01-23 22:10:00,
2013-01-23 14:15:00,70.0,31.0,30.03,SSW,202,7.5,8.2,23,0.00,,,0.00,Rainwise IP-100,2013-01-23 22:15:00,
2013-01-23 14:20:00,70.0,31.0,30.03,SSW,202,3.5,8.4,23,0.00,,,0.00,Rainwise IP-100,2013-01-23 22:20:00,
2013-01-23 14:25:00,70.0,31.0,30.03,South,180,3.3,6.1,23,0.00,,,0.00,Rainwise IP-100,2013-01-23 22:25:00,
2013-01-23 14:30:00,70.0,31.0,30.04,WSW,247,2.8,5.8,23,0.00,,,0.00,Rainwise IP-100,2013-01-23 22:30:00,
2013-01-23 14:35:00,70.1,32.0,30.04,SW,225,4.0,7.7,24,0.00,,,0.00,Rainwise IP-100,2013-01-23 22:35:00,
2013-01-23 14:40:00,70.2,32.0,30.04,SW,225,5.6,7.2,24,0.00,,,0.00,Rainwise IP-100,2013-01-23 22:40:00,
2013-01-23 14:45:00,70.5,33.0,30.05,South,180,2.8,7.2,25,0.00,,,0.00,Rainwise IP-100,2013-01-23 22:45:00,
2013-01-23 14:50:00,70.6,33.0,30.04,SSW,202,5.1,8.6,25,0.00,,,0.00,Rainwise IP-100,2013-01-23 22:50:00,
2013-01-23 14:55:00,70.3,33.0,30.05,SSW,202,6.3,8.2,25,0.00,,,0.00,Rainwise IP-100,2013-01-23 22:55:00,
2013-01-23 15:00:00,69.9,33.0,30.05,SSW,202,3.7,7.7,25,0.00,,,0.00,Rainwise IP-100,2013-01-23 23:00:00,
2013-01-23 15:05:00,69.3,33.0,30.06,SSW,202,6.3,7.7,26,0.00,,,0.00,Rainwise IP-100,2013-01-23 23:05:00,
2013-01-23 15:10:00,68.8,33.0,30.06,SSW,202,2.3,8.2,27,0.00,,,0.00,Rainwise IP-100,2013-01-23 23:10:00,
2013-01-23 15:15:00,68.5,35.0,30.06,South,180,3.3,6.8,28,0.00,,,0.00,Rainwise IP-100,2013-01-23 23:15:00,
2013-01-23 15:20:00,68.1,35.0,30.06,SSW,202,2.6,6.3,29,0.00,,,0.00,Rainwise IP-100,2013-01-23 23:20:00,
2013-01-23 15:25:00,67.7,35.0,30.06,SW,225,2.8,6.3,29,0.00,,,0.00,Rainwise IP-100,2013-01-23 23:25:00,
2013-01-23 15:30:00,67.5,35.0,30.06,SSW,202,4.2,7.7,29,0.00,,,0.00,Rainwise IP-100,2013-01-23 23:30:00,
2013-01-23 15:35:00,67.5,35.0,30.06,SSW,202,4.7,7.0,29,0.00,,,0.00,Rainwise IP-100,2013-01-23 23:35:00,
2013-01-23 15:40:00,67.4,33.0,30.06,SSW,202,4.9,7.7,28,0.00,,,0.00,Rainwise IP-100,2013-01-23 23:40:00,
2013-01-23 15:45:00,67.1,33.0,30.06,SSW,202,1.2,7.0,29,0.00,,,0.00,Rainwise IP-100,2013-01-23 23:45:00,
2013-01-23 15:50:00,66.9,35.0,30.06,SSW,202,3.5,5.1,30,0.00,,,0.00,Rainwise IP-100,2013-01-23 23:50:00,
2013-01-23 15:55:00,66.7,35.0,30.06,SSE,157,0.0,7.2,30,0.00,,,0.00,Rainwise IP-100,2013-01-23 23:55:00,
2013-01-23 16:00:00,66.6,35.0,30.06,SSW,202,1.4,6.8,30,0.00,,,0.00,Rainwise IP-100,2013-01-24 00:00:00,
2013-01-23 16:05:00,66.4,35.0,30.06,SSW,202,1.9,7.9,30,0.00,,,0.00,Rainwise IP-100,2013-01-24 00:05:00,
2013-01-23 16:10:00,66.3,35.0,30.06,SSW,202,2.8,5.8,30,0.00,,,0.00,Rainwise IP-100,2013-01-24 00:10:00,
2013-01-23 16:15:00,66.1,35.0,30.06,SSE,157,1.4,6.8,31,0.00,,,0.00,Rainwise IP-100,2013-01-24 00:15:00,
2013-01-23 16:20:00,66.0,35.0,30.06,SSW,202,2.6,5.8,32,0.00,,,0.00,Rainwise IP-100,2013-01-24 00:20:00,
2013-01-23 16:25:00,65.8,35.0,30.06,SSE,157,1.2,5.8,32,0.00,,,0.00,Rainwise IP-100,2013-01-24 00:25:00,
2013-01-23 16:30:00,65.7,35.0,30.06,SSE,157,0.0,5.4,32,0.00,,,0.00,Rainwise IP-100,2013-01-24 00:30:00,
2013-01-23 16:35:00,65.5,36.0,30.06,SSE,157,1.9,5.1,33,0.00,,,0.00,Rainwise IP-100,2013-01-24 00:35:00,
2013-01-23 16:40:00,65.3,36.0,30.06,WSW,247,1.6,4.9,33,0.00,,,0.00,Rainwise IP-100,2013-01-24 00:40:00,
2013-01-23 16:45:00,65.2,35.0,30.06,SSE,157,2.1,3.7,33,0.00,,,0.00,Rainwise IP-100,2013-01-24 00:45:00,
2013-01-23 16:50:00,65.1,36.0,30.06,SSE,157,0.0,4.9,34,0.00,,,0.00,Rainwise IP-100,2013-01-24 00:50:00,
2013-01-23 16:55:00,65.0,36.0,30.06,SSE,157,1.2,4.4,34,0.00,,,0.00,Rainwise IP-100,2013-01-24 00:55:00,
2013-01-23 17:00:00,64.9,36.0,30.06,SSW,202,0.0,3.0,34,0.00,,,0.00,Rainwise IP-100,2013-01-24 01:00:00,
2013-01-23 17:05:00,64.8,36.0,30.07,SSW,202,2.8,4.2,34,0.00,,,0.00,Rainwise IP-100,2013-01-24 01:05:00,
2013-01-23 17:10:00,64.8,36.0,30.08,SSW,202,4.2,5.4,34,0.00,,,0.00,Rainwise IP-100,2013-01-24 01:10:00,
2013-01-23 17:15:00,64.6,36.0,30.08,SSW,202,2.8,5.1,34,0.00,,,0.00,Rainwise IP-100,2013-01-24 01:15:00,
2013-01-23 17:20:00,64.4,36.0,30.08,South,180,1.2,5.1,35,0.00,,,0.00,Rainwise IP-100,2013-01-24 01:20:00,
2013-01-23 17:25:00,64.2,36.0,30.08,SSE,157,0.0,3.7,35,0.00,,,0.00,Rainwise IP-100,2013-01-24 01:25:00,
2013-01-23 17:30:00,64.1,37.0,30.08,SSW,202,2.6,3.5,36,0.00,,,0.00,Rainwise IP-100,2013-01-24 01:30:00,
2013-01-23 17:35:00,64.0,37.0,30.08,SSW,202,1.9,3.7,36,0.00,,,0.00,Rainwise IP-100,2013-01-24 01:35:00,
2013-01-23 17:40:00,63.8,37.0,30.08,SSW,202,1.9,2.3,37,0.00,,,0.00,Rainwise IP-100,2013-01-24 01:40:00,
2013-01-23 17:45:00,63.6,37.0,30.08,SSW,202,1.6,2.6,37,0.00,,,0.00,Rainwise IP-100,2013-01-24 01:45:00,
2013-01-23 17:50:00,63.5,37.0,30.08,South,180,0.0,2.6,37,0.00,,,0.00,Rainwise IP-100,2013-01-24 01:50:00,
2013-01-23 17:55:00,63.5,37.0,30.08,South,180,0.0,0.0,38,0.00,,,0.00,Rainwise IP-100,2013-01-24 01:55:00,
2013-01-23 18:00:00,63.5,37.0,30.08,South,180,0.0,1.2,38,0.00,,,0.00,Rainwise IP-100,2013-01-24 02:00:00,
2013-01-23 18:05:00,63.4,37.0,30.08,South,180,0.0,0.0,37,0.00,,,0.00,Rainwise IP-100,2013-01-24 02:05:00,
2013-01-23 18:10:00,63.5,36.0,30.08,South,180,0.0,0.0,36,0.00,,,0.00,Rainwise IP-100,2013-01-24 02:10:00,
2013-01-23 18:15:00,63.6,36.0,30.08,WSW,247,1.2,1.4,35,0.00,,,0.00,Rainwise IP-100,2013-01-24 02:15:00,
2013-01-23 18:20:00,63.7,35.0,30.08,NW,315,1.4,2.1,34,0.00,,,0.00,Rainwise IP-100,2013-01-24 02:20:00,
2013-01-23 18:25:00,64.0,35.0,30.08,NNW,337,0.0,2.8,33,0.00,,,0.00,Rainwise IP-100,2013-01-24 02:25:00,
2013-01-23 18:30:00,64.0,35.0,30.09,WSW,247,0.0,2.1,33,0.00,,,0.00,Rainwise IP-100,2013-01-24 02:30:00,
2013-01-23 18:35:00,63.9,35.0,30.10,South,180,2.6,4.2,33,0.00,,,0.00,Rainwise IP-100,2013-01-24 02:35:00,
2013-01-23 18:40:00,63.6,35.0,30.09,SW,225,2.3,6.8,34,0.00,,,0.00,Rainwise IP-100,2013-01-24 02:40:00,
2013-01-23 18:45:00,63.1,37.0,30.10,SSW,202,2.6,5.6,38,0.00,,,0.00,Rainwise IP-100,2013-01-24 02:45:00,
2013-01-23 18:50:00,62.5,40.0,30.10,SSW,202,1.9,5.8,43,0.00,,,0.00,Rainwise IP-100,2013-01-24 02:50:00,
2013-01-23 18:55:00,62.0,41.0,30.10,SSW,202,1.6,5.6,47,0.00,,,0.00,Rainwise IP-100,2013-01-24 02:55:00,
2013-01-23 19:00:00,61.7,41.0,30.10,SSW,202,0.0,3.5,48,0.00,,,0.00,Rainwise IP-100,2013-01-24 03:00:00,
2013-01-23 19:05:00,61.5,42.0,30.09,SSW,202,1.2,6.5,49,0.00,,,0.00,Rainwise IP-100,2013-01-24 03:05:00,
2013-01-23 19:10:00,61.3,43.0,30.09,SSW,202,0.0,1.9,50,0.00,,,0.00,Rainwise IP-100,2013-01-24 03:10:00,
2013-01-23 19:15:00,61.2,43.0,30.09,SSW,202,2.1,3.0,51,0.00,,,0.00,Rainwise IP-100,2013-01-24 03:15:00,
2013-01-23 19:20:00,61.0,43.0,30.09,WNW,292,0.0,3.0,51,0.00,,,0.00,Rainwise IP-100,2013-01-24 03:20:00,
2013-01-23 19:25:00,60.9,43.0,30.09,SSW,202,4.0,4.0,52,0.00,,,0.00,Rainwise IP-100,2013-01-24 03:25:00,
2013-01-23 19:30:00,61.0,43.0,30.09,SSW,202,0.0,4.7,51,0.00,,,0.00,Rainwise IP-100,2013-01-24 03:30:00,
2013-01-23 19:35:00,61.2,42.0,30.09,WSW,247,1.2,3.3,50,0.00,,,0.00,Rainwise IP-100,2013-01-24 03:35:00,
2013-01-23 19:40:00,61.3,41.0,30.09,SW,225,0.0,2.3,48,0.00,,,0.00,Rainwise IP-100,2013-01-24 03:40:00,
2013-01-23 19:45:00,61.4,41.0,30.09,SW,225,1.9,3.3,47,0.00,,,0.00,Rainwise IP-100,2013-01-24 03:45:00,
2013-01-23 19:50:00,61.4,41.0,30.09,SSW,202,1.2,4.0,47,0.00,,,0.00,Rainwise IP-100,2013-01-24 03:50:00,
2013-01-23 19:55:00,61.5,41.0,30.08,SSW,202,0.0,2.8,47,0.00,,,0.00,Rainwise IP-100,2013-01-24 03:55:00,
2013-01-23 20:00:00,61.5,40.0,30.08,SW,225,1.6,4.9,46,0.00,,,0.00,Rainwise IP-100,2013-01-24 04:00:00,
2013-01-23 20:05:00,61.5,40.0,30.09,SW,225,1.9,4.0,46,0.00,,,0.00,Rainwise IP-100,2013-01-24 04:05:00,
2013-01-23 20:10:00,61.4,41.0,30.09,SSW,202,1.6,3.7,47,0.00,,,0.00,Rainwise IP-100,2013-01-24 04:10:00,
2013-01-23 20:15:00,61.2,40.0,30.10,SSW,202,2.8,4.4,47,0.00,,,0.00,Rainwise IP-100,2013-01-24 04:15:00,
2013-01-23 20:20:00,61.0,41.0,30.09,SSW,202,2.3,3.3,48,0.00,,,0.00,Rainwise IP-100,2013-01-24 04:20:00,
2013-01-23 20:25:00,60.9,41.0,30.09,SSW,202,0.0,2.8,49,0.00,,,0.00,Rainwise IP-100,2013-01-24 04:25:00,
2013-01-23 20:30:00,60.8,41.0,30.09,SSW,202,0.0,3.3,48,0.00,,,0.00,Rainwise IP-100,2013-01-24 04:30:00,
2013-01-23 20:35:00,60.8,41.0,30.09,SSW,202,0.0,0.0,48,0.00,,,0.00,Rainwise IP-100,2013-01-24 04:35:00,
2013-01-23 20:40:00,60.8,41.0,30.09,WNW,292,0.0,2.1,48,0.00,,,0.00,Rainwise IP-100,2013-01-24 04:40:00,
2013-01-23 20:45:00,60.7,40.0,30.10,WNW,292,1.2,1.2,48,0.00,,,0.00,Rainwise IP-100,2013-01-24 04:45:00,
2013-01-23 20:50:00,60.7,40.0,30.09,West,270,0.0,1.9,48,0.00,,,0.00,Rainwise IP-100,2013-01-24 04:50:00,
2013-01-23 20:55:00,60.8,41.0,30.09,West,270,0.0,1.4,48,0.00,,,0.00,Rainwise IP-100,2013-01-24 04:55:00,
2013-01-23 21:00:00,60.7,40.0,30.10,West,270,0.0,0.0,47,0.00,,,0.00,Rainwise IP-100,2013-01-24 05:00:00,
2013-01-23 21:05:00,60.8,40.0,30.10,SSW,202,0.0,2.1,47,0.00,,,0.00,Rainwise IP-100,2013-01-24 05:05:00,
2013-01-23 21:10:00,60.8,40.0,30.10,SSW,202,0.0,1.2,47,0.00,,,0.00,Rainwise IP-100,2013-01-24 05:10:00,
2013-01-23 21:15:00,60.8,40.0,30.10,SSW,202,0.0,0.0,47,0.00,,,0.00,Rainwise IP-100,2013-01-24 05:15:00,
2013-01-23 21:20:00,60.8,40.0,30.10,SSW,202,0.0,0.0,47,0.00,,,0.00,Rainwise IP-100,2013-01-24 05:20:00,
2013-01-23 21:25:00,60.8,40.0,30.10,SSW,202,0.0,0.0,47,0.00,,,0.00,Rainwise IP-100,2013-01-24 05:25:00,
2013-01-23 21:30:00,60.7,40.0,30.11,SSW,202,0.0,0.0,47,0.00,,,0.00,Rainwise IP-100,2013-01-24 05:30:00,
2013-01-23 21:35:00,60.6,40.0,30.11,SSW,202,0.0,0.0,47,0.00,,,0.00,Rainwise IP-100,2013-01-24 05:35:00,
2013-01-23 21:40:00,60.7,40.0,30.10,SSW,202,0.0,0.0,47,0.00,,,0.00,Rainwise IP-100,2013-01-24 05:40:00,
2013-01-23 21:45:00,60.8,40.0,30.10,SSW,202,0.0,0.0,46,0.00,,,0.00,Rainwise IP-100,2013-01-24 05:45:00,
2013-01-23 21:50:00,60.7,39.0,30.10,SSW,202,0.0,1.4,46,0.00,,,0.00,Rainwise IP-100,2013-01-24 05:50:00,
2013-01-23 21:55:00,60.4,40.0,30.11,SSW,202,0.0,0.0,47,0.00,,,0.00,Rainwise IP-100,2013-01-24 05:55:00,
2013-01-23 22:00:00,60.2,39.0,30.11,SSW,202,0.0,0.0,47,0.00,,,0.00,Rainwise IP-100,2013-01-24 06:00:00,
2013-01-23 22:05:00,60.2,39.0,30.12,SSW,202,2.1,2.6,47,0.00,,,0.00,Rainwise IP-100,2013-01-24 06:05:00,
2013-01-23 22:10:00,60.4,40.0,30.12,SSW,202,3.0,4.9,47,0.00,,,0.00,Rainwise IP-100,2013-01-24 06:10:00,
2013-01-23 22:15:00,60.5,40.0,30.13,WSW,247,2.8,5.6,48,0.00,,,0.00,Rainwise IP-100,2013-01-24 06:15:00,
2013-01-23 22:20:00,60.4,42.0,30.13,SSW,202,0.0,3.5,50,0.00,,,0.00,Rainwise IP-100,2013-01-24 06:20:00,
2013-01-23 22:25:00,60.3,43.0,30.13,SSW,202,1.2,2.6,52,0.00,,,0.00,Rainwise IP-100,2013-01-24 06:25:00,
2013-01-23 22:30:00,60.1,43.0,30.13,SSW,202,2.3,3.0,54,0.00,,,0.00,Rainwise IP-100,2013-01-24 06:30:00,
2013-01-23 22:35:00,60.0,44.0,30.14,SSW,202,1.6,3.7,55,0.00,,,0.00,Rainwise IP-100,2013-01-24 06:35:00,
2013-01-23 22:40:00,59.9,44.0,30.14,SSW,202,1.4,2.1,56,0.00,,,0.00,Rainwise IP-100,2013-01-24 06:40:00,
2013-01-23 22:45:00,59.8,45.0,30.14,SSW,202,0.0,1.6,57,0.00,,,0.00,Rainwise IP-100,2013-01-24 06:45:00,
2013-01-23 22:50:00,59.7,45.0,30.14,SSW,202,2.6,2.6,58,0.00,,,0.00,Rainwise IP-100,2013-01-24 06:50:00,
2013-01-23 22:55:00,59.5,45.0,30.14,SSW,202,2.6,2.8,59,0.00,,,0.00,Rainwise IP-100,2013-01-24 06:55:00,
2013-01-23 23:00:00,59.4,46.0,30.14,SSW,202,2.1,2.8,60,0.00,,,0.00,Rainwise IP-100,2013-01-24 07:00:00,
2013-01-23 23:05:00,59.3,46.0,30.14,SSW,202,1.4,3.7,61,0.00,,,0.00,Rainwise IP-100,2013-01-24 07:05:00,
2013-01-23 23:10:00,59.2,46.0,30.14,SSW,202,2.1,3.3,62,0.00,,,0.00,Rainwise IP-100,2013-01-24 07:10:00,
2013-01-23 23:15:00,59.0,47.0,30.14,SSW,202,1.6,3.3,63,0.00,,,0.00,Rainwise IP-100,2013-01-24 07:15:00,
2013-01-23 23:20:00,59.0,47.0,30.14,SSW,202,0.0,2.6,63,0.00,,,0.00,Rainwise IP-100,2013-01-24 07:20:00,
2013-01-23 23:25:00,59.0,47.0,30.14,SSW,202,1.6,1.9,64,0.00,,,0.00,Rainwise IP-100,2013-01-24 07:25:00,
2013-01-23 23:30:00,58.9,47.5,30.15,SSW,202,0.0,1.9,65,0.00,,,0.00,Rainwise IP-100,2013-01-24 07:30:00,
2013-01-23 23:35:00,58.7,47.5,30.14,SSW,202,0.0,1.2,65,0.00,,,0.00,Rainwise IP-100,2013-01-24 07:35:00,
2013-01-23 23:40:00,58.6,47.5,30.14,SSW,202,0.0,0.0,66,0.00,,,0.00,Rainwise IP-100,2013-01-24 07:40:00,
2013-01-23 23:45:00,58.3,47.5,30.14,SSW,202,0.0,0.0,68,0.00,,,0.00,Rainwise IP-100,2013-01-24 07:45:00,
2013-01-23 23:50:00,58.1,48.0,30.14,SSW,202,0.0,0.0,69,0.00,,,0.00,Rainwise IP-100,2013-01-24 07:50:00,
2013-01-23 23:55:00,57.9,48.0,30.14,SSW,202,0.0,0.0,70,0.00,,,0.00,Rainwise IP-100,2013-01-24 07:55:00,